Time,TemperatureF,DewpointF,PressureIn,WindDirection,WindDirectionDegrees,WindSpeedMPH,WindSpeedGustMPH,Humidity,HourlyPrecipIn,Conditions,Clouds,dailyrainin,SolarRadiationWatts/m^2,SoftwareType,DateUTC
2013-04-16 00:00:00,63.1,57.5,30.13,ENE,72,1.0,1.0,82,0.00,,,0.00,0.00,VWS V14.01,2013-04-16 04:00:00,
2013-04-16 00:05:00,63.1,57.9,30.12,ENE,72,0.0,0.0,83,0.00,,,0.00,0.00,VWS V14.01,2013-04-16 04:05:00,
2013-04-16 00:10:00,62.7,57.5,30.12,ENE,72,0.0,4.0,83,0.00,,,0.00,0.00,VWS V14.01,2013-04-16 04:10:00,
2013-04-16 00:15:00,62.6,57.4,30.12,ENE,72,0.0,0.0,83,0.00,,,0.00,0.00,VWS V14.01,2013-04-16 04:15:00,
2013-04-16 00:20:00,62.4,57.5,30.12,ENE,72,0.0,0.0,84,0.00,,,0.00,0.00,VWS V14.01,2013-04-16 04:20:00,
2013-04-16 00:25:00,62.4,57.5,30.12,ENE,72,0.0,0.0,84,0.00,,,0.00,0.00,VWS V14.01,2013-04-16 04:25:00,
2013-04-16 00:30:00,62.1,57.5,30.12,ENE,72,1.0,3.0,85,0.00,,,0.00,0.00,VWS V14.01,2013-04-16 04:30:00,
2013-04-16 00:35:00,62.0,57.5,30.12,East,87,0.0,4.0,85,0.00,,,0.00,0.00,VWS V14.01,2013-04-16 04:35:00,
2013-04-16 00:40:00,62.0,57.8,30.12,East,84,0.0,0.0,86,0.00,,,0.00,0.00,VWS V14.01,2013-04-16 04:40:00,
2013-04-16 00:45:00,61.8,57.6,30.12,East,84,0.0,0.0,86,0.00,,,0.00,0.00,VWS V14.01,2013-04-16 04:45:00,
2013-04-16 00:50:00,61.6,57.4,30.12,East,84,2.0,2.0,86,0.00,,,0.00,0.00,VWS V14.01,2013-04-16 04:50:00,
2013-04-16 00:55:00,61.5,57.6,30.12,East,84,0.0,0.0,87,0.00,,,0.00,0.00,VWS V14.01,2013-04-16 04:55:00,
2013-04-16 01:00:00,61.3,57.4,30.13,East,89,0.0,0.0,87,0.00,,,0.00,0.00,VWS V14.01,2013-04-16 05:00:00,
2013-04-16 01:05:00,61.2,57.3,30.13,East,89,0.0,0.0,87,0.00,,,0.00,0.00,VWS V14.01,2013-04-16 05:05:00,
2013-04-16 01:10:00,61.0,57.1,30.13,East,89,0.0,0.0,87,0.00,,,0.00,0.00,VWS V14.01,2013-04-16 05:10:00,
2013-04-16 01:15:00,60.9,57.3,30.13,East,89,0.0,0.0,88,0.00,,,0.00,0.00,VWS V14.01,2013-04-16 05:15:00,
2013-04-16 01:20:00,60.9,57.3,30.13,East,89,0.0,0.0,88,0.00,,,0.00,0.00,VWS V14.01,2013-04-16 05:20:00,
2013-04-16 01:25:00,60.7,57.1,30.13,East,89,0.0,0.0,88,0.00,,,0.00,0.00,VWS V14.01,2013-04-16 05:25:00,
2013-04-16 01:30:00,60.4,56.8,30.13,East,89,0.0,0.0,88,0.00,,,0.00,0.00,VWS V14.01,2013-04-16 05:30:00,
2013-04-16 01:35:00,60.2,56.6,30.13,East,89,0.0,0.0,88,0.00,,,0.00,0.00,VWS V14.01,2013-04-16 05:35:00,
2013-04-16 01:40:00,60.1,56.5,30.13,East,89,0.0,0.0,88,0.00,,,0.00,0.00,VWS V14.01,2013-04-16 05:40:00,
2013-04-16 01:45:00,59.9,56.3,30.13,East,89,0.0,0.0,88,0.00,,,0.00,0.00,VWS V14.01,2013-04-16 05:45:00,
2013-04-16 01:50:00,59.8,56.6,30.13,East,89,0.0,0.0,89,0.00,,,0.00,0.00,VWS V14.01,2013-04-16 05:50:00,
2013-04-16 01:55:00,59.6,56.4,30.13,East,89,0.0,0.0,89,0.00,,,0.00,0.00,VWS V14.01,2013-04-16 05:55:00,
2013-04-16 02:00:00,59.5,56.6,30.13,East,89,0.0,0.0,90,0.00,,,0.00,0.00,VWS V14.01,2013-04-16 06:00:00,
2013-04-16 02:05:00,59.5,56.6,30.13,East,89,0.0,0.0,90,0.00,,,0.00,0.00,VWS V14.01,2013-04-16 06:05:00,
2013-04-16 02:10:00,59.5,56.6,30.13,East,89,0.0,0.0,90,0.00,,,0.00,0.00,VWS V14.01,2013-04-16 06:10:00,
2013-04-16 02:15:00,59.5,56.9,30.13,East,89,0.0,0.0,91,0.00,,,0.00,0.00,VWS V14.01,2013-04-16 06:15:00,
2013-04-16 02:20:00,59.5,56.9,30.13,East,89,0.0,0.0,91,0.00,,,0.00,0.00,VWS V14.01,2013-04-16 06:20:00,
2013-04-16 02:25:00,59.5,56.9,30.13,East,89,0.0,0.0,91,0.00,,,0.00,0.00,VWS V14.01,2013-04-16 06:25:00,
2013-04-16 02:30:00,59.3,56.7,30.13,East,89,0.0,0.0,91,0.00,,,0.00,0.00,VWS V14.01,2013-04-16 06:30:00,
2013-04-16 02:35:00,59.0,56.4,30.13,East,89,0.0,0.0,91,0.00,,,0.00,0.00,VWS V14.01,2013-04-16 06:35:00,
2013-04-16 02:40:00,58.9,56.3,30.13,East,89,0.0,0.0,91,0.00,,,0.00,0.00,VWS V14.01,2013-04-16 06:40:00,
2013-04-16 02:45:00,58.7,56.1,30.13,East,89,0.0,0.0,91,0.00,,,0.00,0.00,VWS V14.01,2013-04-16 06:45:00,
2013-04-16 02:50:00,58.4,55.8,30.13,East,89,0.0,0.0,91,0.00,,,0.00,0.00,VWS V14.01,2013-04-16 06:50:00,
2013-04-16 02:55:00,58.3,55.7,30.13,East,89,0.0,0.0,91,0.00,,,0.00,0.00,VWS V14.01,2013-04-16 06:55:00,
2013-04-16 03:00:00,58.0,55.4,30.13,East,89,0.0,0.0,91,0.00,,,0.00,0.00,VWS V14.01,2013-04-16 07:00:00,
2013-04-16 03:05:00,57.8,55.2,30.13,East,89,0.0,0.0,91,0.00,,,0.00,0.00,VWS V14.01,2013-04-16 07:05:00,
2013-04-16 03:10:00,57.5,54.9,30.13,East,89,0.0,0.0,91,0.00,,,0.00,0.00,VWS V14.01,2013-04-16 07:10:00,
2013-04-16 03:16:00,57.2,54.6,30.13,East,89,0.0,0.0,91,0.00,,,0.00,0.00,VWS V14.01,2013-04-16 07:16:00,
2013-04-16 03:21:00,57.0,54.1,30.13,East,89,0.0,0.0,90,0.00,,,0.00,0.00,VWS V14.01,2013-04-16 07:21:00,
2013-04-16 03:26:00,56.7,53.8,30.13,East,89,0.0,0.0,90,0.00,,,0.00,0.00,VWS V14.01,2013-04-16 07:26:00,
2013-04-16 03:31:00,56.5,53.6,30.13,East,89,0.0,0.0,90,0.00,,,0.00,0.00,VWS V14.01,2013-04-16 07:31:00,
2013-04-16 03:36:00,56.2,53.3,30.13,East,89,0.0,0.0,90,0.00,,,0.00,0.00,VWS V14.01,2013-04-16 07:36:00,
2013-04-16 03:41:00,56.2,53.6,30.13,East,89,0.0,0.0,91,0.00,,,0.00,0.00,VWS V14.01,2013-04-16 07:41:00,
2013-04-16 03:46:00,56.0,53.4,30.13,East,89,0.0,0.0,91,0.00,,,0.00,0.00,VWS V14.01,2013-04-16 07:46:00,
2013-04-16 03:51:00,55.7,53.1,30.13,East,89,0.0,0.0,91,0.00,,,0.00,0.00,VWS V14.01,2013-04-16 07:51:00,
2013-04-16 03:56:00,55.6,53.0,30.13,East,89,0.0,0.0,91,0.00,,,0.00,0.00,VWS V14.01,2013-04-16 07:56:00,
2013-04-16 04:01:00,55.4,52.8,30.13,East,89,0.0,0.0,91,0.00,,,0.00,0.00,VWS V14.01,2013-04-16 08:01:00,
2013-04-16 04:06:00,55.3,52.7,30.13,East,89,0.0,0.0,91,0.00,,,0.00,0.00,VWS V14.01,2013-04-16 08:06:00,
2013-04-16 04:11:00,55.1,52.5,30.13,East,89,0.0,0.0,91,0.00,,,0.00,0.00,VWS V14.01,2013-04-16 08:11:00,
2013-04-16 04:16:00,55.0,52.4,30.13,East,89,0.0,0.0,91,0.00,,,0.00,0.00,VWS V14.01,2013-04-16 08:16:00,
2013-04-16 04:21:00,55.0,52.7,30.13,East,89,0.0,0.0,92,0.00,,,0.00,0.00,VWS V14.01,2013-04-16 08:21:00,
2013-04-16 04:26:00,55.1,52.8,30.13,East,89,0.0,0.0,92,0.00,,,0.00,0.00,VWS V14.01,2013-04-16 08:26:00,
2013-04-16 04:31:00,55.3,53.0,30.13,East,89,0.0,0.0,92,0.00,,,0.00,0.00,VWS V14.01,2013-04-16 08:31:00,
2013-04-16 04:36:00,55.4,53.1,30.13,East,89,0.0,0.0,92,0.00,,,0.00,0.00,VWS V14.01,2013-04-16 08:36:00,
2013-04-16 04:42:00,55.4,53.1,30.13,East,89,0.0,0.0,92,0.00,,,0.00,0.00,VWS V14.01,2013-04-16 08:42:00,
2013-04-16 04:47:00,55.3,53.0,30.13,East,89,0.0,0.0,92,0.00,,,0.00,0.00,VWS V14.01,2013-04-16 08:47:00,
2013-04-16 04:52:00,55.1,53.1,30.13,East,89,0.0,0.0,93,0.00,,,0.00,0.00,VWS V14.01,2013-04-16 08:52:00,
2013-04-16 04:57:00,55.1,53.1,30.13,East,89,0.0,0.0,93,0.00,,,0.00,0.00,VWS V14.01,2013-04-16 08:57:00,
2013-04-16 05:02:00,55.1,53.1,30.13,East,89,0.0,0.0,93,0.00,,,0.00,0.00,VWS V14.01,2013-04-16 09:02:00,
2013-04-16 05:07:00,55.0,53.0,30.13,East,89,0.0,0.0,93,0.00,,,0.00,0.00,VWS V14.01,2013-04-16 09:07:00,
2013-04-16 05:12:00,54.8,52.8,30.13,East,89,0.0,0.0,93,0.00,,,0.00,0.00,VWS V14.01,2013-04-16 09:12:00,
2013-04-16 05:17:00,54.5,52.5,30.13,East,89,0.0,0.0,93,0.00,,,0.00,0.00,VWS V14.01,2013-04-16 09:17:00,
2013-04-16 05:22:00,54.4,52.4,30.13,East,89,0.0,0.0,93,0.00,,,0.00,0.00,VWS V14.01,2013-04-16 09:22:00,
2013-04-16 05:27:00,54.2,52.2,30.13,East,89,0.0,0.0,93,0.00,,,0.00,0.00,VWS V14.01,2013-04-16 09:27:00,
2013-04-16 05:32:00,54.1,52.1,30.13,East,89,0.0,0.0,93,0.00,,,0.00,0.00,VWS V14.01,2013-04-16 09:32:00,
2013-04-16 05:37:00,54.2,52.2,30.13,East,89,0.0,0.0,93,0.00,,,0.00,0.00,VWS V14.01,2013-04-16 09:37:00,
2013-04-16 05:42:00,54.2,52.5,30.13,East,89,0.0,0.0,94,0.00,,,0.00,0.00,VWS V14.01,2013-04-16 09:42:00,
2013-04-16 05:47:00,54.4,52.7,30.13,East,89,0.0,0.0,94,0.00,,,0.00,0.00,VWS V14.01,2013-04-16 09:47:00,
2013-04-16 05:52:00,54.2,52.5,30.13,East,89,0.0,0.0,94,0.00,,,0.00,0.00,VWS V14.01,2013-04-16 09:52:00,
2013-04-16 05:57:00,54.4,52.7,30.13,East,89,0.0,0.0,94,0.00,,,0.00,0.00,VWS V14.01,2013-04-16 09:57:00,
2013-04-16 06:02:00,54.5,52.8,30.13,East,89,0.0,0.0,94,0.00,,,0.00,0.00,VWS V14.01,2013-04-16 10:02:00,
2013-04-16 06:07:00,54.7,53.0,30.13,East,89,0.0,0.0,94,0.00,,,0.00,0.00,VWS V14.01,2013-04-16 10:07:00,
2013-04-16 06:12:00,54.7,53.0,30.13,East,89,0.0,0.0,94,0.00,,,0.00,0.00,VWS V14.01,2013-04-16 10:12:00,
2013-04-16 06:17:00,54.8,53.1,30.14,East,89,0.0,0.0,94,0.00,,,0.00,0.00,VWS V14.01,2013-04-16 10:17:00,
2013-04-16 06:22:00,55.1,53.4,30.14,East,89,0.0,0.0,94,0.00,,,0.00,0.00,VWS V14.01,2013-04-16 10:22:00,
2013-04-16 06:27:00,55.3,53.9,30.14,East,89,0.0,0.0,95,0.00,,,0.00,0.00,VWS V14.01,2013-04-16 10:27:00,
2013-04-16 06:32:00,55.6,53.9,30.15,East,89,0.0,0.0,94,0.00,,,0.00,0.00,VWS V14.01,2013-04-16 10:32:00,
2013-04-16 06:37:00,55.6,53.9,30.15,East,89,0.0,0.0,94,0.00,,,0.00,0.00,VWS V14.01,2013-04-16 10:37:00,
2013-04-16 06:42:00,55.9,54.5,30.15,East,89,0.0,0.0,95,0.00,,,0.00,0.00,VWS V14.01,2013-04-16 10:42:00,
2013-04-16 06:47:00,56.2,54.8,30.15,East,89,0.0,0.0,95,0.00,,,0.00,5.00,VWS V14.01,2013-04-16 10:47:00,
2013-04-16 06:52:00,56.3,54.9,30.15,East,89,0.0,0.0,95,0.00,,,0.00,5.00,VWS V14.01,2013-04-16 10:52:00,
2013-04-16 06:57:00,56.5,55.1,30.15,East,89,0.0,0.0,95,0.00,,,0.00,9.00,VWS V14.01,2013-04-16 10:57:00,
2013-04-16 07:02:00,56.7,55.3,30.16,East,89,0.0,0.0,95,0.00,,,0.00,12.00,VWS V14.01,2013-04-16 11:02:00,
2013-04-16 07:07:00,57.0,55.6,30.16,East,89,0.0,0.0,95,0.00,,,0.00,12.00,VWS V14.01,2013-04-16 11:07:00,
2013-04-16 07:12:00,57.2,55.8,30.16,East,89,0.0,0.0,95,0.00,,,0.00,16.00,VWS V14.01,2013-04-16 11:12:00,
2013-04-16 07:17:00,57.3,55.9,30.16,East,89,0.0,0.0,95,0.00,,,0.00,19.00,VWS V14.01,2013-04-16 11:17:00,
2013-04-16 07:22:00,57.6,56.2,30.16,East,89,0.0,0.0,95,0.00,,,0.00,26.00,VWS V14.01,2013-04-16 11:22:00,
2013-04-16 07:27:00,57.8,56.4,30.16,East,89,0.0,0.0,95,0.00,,,0.00,30.00,VWS V14.01,2013-04-16 11:27:00,
2013-04-16 07:32:00,58.0,56.6,30.17,East,89,0.0,0.0,95,0.00,,,0.00,39.00,VWS V14.01,2013-04-16 11:32:00,
2013-04-16 07:37:00,58.1,56.7,30.17,East,89,0.0,0.0,95,0.00,,,0.00,44.00,VWS V14.01,2013-04-16 11:37:00,
2013-04-16 07:42:00,58.1,56.7,30.17,East,89,0.0,0.0,95,0.00,,,0.00,39.00,VWS V14.01,2013-04-16 11:42:00,
2013-04-16 07:47:00,58.3,56.9,30.17,SE,134,2.0,2.0,95,0.00,,,0.00,44.00,VWS V14.01,2013-04-16 11:47:00,
2013-04-16 07:52:00,58.3,56.9,30.17,NE,37,0.0,0.0,95,0.00,,,0.00,49.00,VWS V14.01,2013-04-16 11:52:00,
2013-04-16 07:57:00,58.3,56.9,30.17,NE,37,0.0,0.0,95,0.00,,,0.00,42.00,VWS V14.01,2013-04-16 11:57:00,
2013-04-16 08:02:00,58.4,57.0,30.18,NE,37,0.0,0.0,95,0.00,,,0.00,54.00,VWS V14.01,2013-04-16 12:02:00,
2013-04-16 08:07:00,58.4,57.0,30.18,NE,37,0.0,0.0,95,0.00,,,0.00,70.00,VWS V14.01,2013-04-16 12:07:00,
2013-04-16 08:12:00,58.6,57.2,30.18,NE,37,0.0,0.0,95,0.00,,,0.00,65.00,VWS V14.01,2013-04-16 12:12:00,
2013-04-16 08:17:00,58.6,57.2,30.18,NE,37,0.0,0.0,95,0.00,,,0.00,72.00,VWS V14.01,2013-04-16 12:17:00,
2013-04-16 08:22:00,58.9,57.5,30.18,NE,37,0.0,0.0,95,0.00,,,0.00,74.00,VWS V14.01,2013-04-16 12:22:00,
2013-04-16 08:27:00,58.9,57.5,30.18,NE,37,0.0,0.0,95,0.00,,,0.00,74.00,VWS V14.01,2013-04-16 12:27:00,
2013-04-16 08:32:00,59.0,57.6,30.18,NE,42,0.0,0.0,95,0.00,,,0.00,83.00,VWS V14.01,2013-04-16 12:32:00,
2013-04-16 08:37:00,59.0,57.6,30.18,NE,42,0.0,0.0,95,0.00,,,0.00,95.00,VWS V14.01,2013-04-16 12:37:00,
2013-04-16 08:42:00,59.2,57.8,30.18,East,91,0.0,0.0,95,0.00,,,0.00,100.00,VWS V14.01,2013-04-16 12:42:00,
2013-04-16 08:47:00,59.3,57.9,30.19,East,91,0.0,0.0,95,0.00,,,0.00,102.00,VWS V14.01,2013-04-16 12:47:00,
2013-04-16 08:52:00,59.5,58.1,30.19,East,93,2.0,3.0,95,0.00,,,0.00,113.00,VWS V14.01,2013-04-16 12:52:00,
2013-04-16 08:57:00,59.6,58.2,30.19,East,93,0.0,0.0,95,0.00,,,0.00,105.00,VWS V14.01,2013-04-16 12:57:00,
2013-04-16 09:02:00,59.6,58.2,30.19,East,93,1.0,1.0,95,0.00,,,0.00,102.00,VWS V14.01,2013-04-16 13:02:00,
2013-04-16 09:07:00,59.8,58.4,30.19,East,93,0.0,0.0,95,0.00,,,0.00,102.00,VWS V14.01,2013-04-16 13:07:00,
2013-04-16 09:12:00,59.9,58.5,30.19,ENE,63,0.0,0.0,95,0.00,,,0.00,93.00,VWS V14.01,2013-04-16 13:12:00,
2013-04-16 09:17:00,59.9,58.5,30.19,SSW,192,1.0,2.0,95,0.00,,,0.00,97.00,VWS V14.01,2013-04-16 13:17:00,
2013-04-16 09:22:00,60.1,58.7,30.19,SSW,192,0.0,0.0,95,0.00,,,0.00,93.00,VWS V14.01,2013-04-16 13:22:00,
2013-04-16 09:27:00,60.2,58.8,30.19,SSW,192,0.0,0.0,95,0.00,,,0.00,98.00,VWS V14.01,2013-04-16 13:27:00,
2013-04-16 09:32:00,60.2,58.5,30.19,SSW,192,0.0,0.0,94,0.00,,,0.00,107.00,VWS V14.01,2013-04-16 13:32:00,
2013-04-16 09:37:00,60.4,58.7,30.19,SSW,192,0.0,0.0,94,0.00,,,0.00,118.00,VWS V14.01,2013-04-16 13:37:00,
2013-04-16 09:42:00,60.4,58.7,30.19,SSW,192,0.0,0.0,94,0.00,,,0.00,121.00,VWS V14.01,2013-04-16 13:42:00,
2013-04-16 09:47:00,60.5,58.8,30.21,SSW,192,0.0,0.0,94,0.00,,,0.00,121.00,VWS V14.01,2013-04-16 13:47:00,
2013-04-16 09:52:00,60.7,58.7,30.21,SSW,192,0.0,0.0,93,0.00,,,0.00,118.00,VWS V14.01,2013-04-16 13:52:00,
2013-04-16 09:57:00,60.7,58.7,30.21,SSW,192,0.0,0.0,93,0.00,,,0.00,116.00,VWS V14.01,2013-04-16 13:57:00,
2013-04-16 10:02:00,60.9,58.9,30.21,SSW,192,0.0,0.0,93,0.00,,,0.00,105.00,VWS V14.01,2013-04-16 14:02:00,
2013-04-16 10:07:00,60.9,58.6,30.21,SSW,192,0.0,0.0,92,0.00,,,0.00,116.00,VWS V14.01,2013-04-16 14:07:00,
2013-04-16 10:12:00,61.0,58.7,30.21,SSW,192,0.0,0.0,92,0.00,,,0.00,116.00,VWS V14.01,2013-04-16 14:12:00,
2013-04-16 10:17:00,61.2,58.9,30.21,SSW,192,0.0,0.0,92,0.00,,,0.00,111.00,VWS V14.01,2013-04-16 14:17:00,
2013-04-16 10:22:00,61.2,58.9,30.21,SSW,192,1.0,1.0,92,0.00,,,0.00,123.00,VWS V14.01,2013-04-16 14:22:00,
2013-04-16 10:27:00,61.3,58.7,30.21,SSW,192,0.0,0.0,91,0.00,,,0.00,127.00,VWS V14.01,2013-04-16 14:27:00,
2013-04-16 10:32:00,61.3,58.7,30.21,SSW,192,2.0,2.0,91,0.00,,,0.00,146.00,VWS V14.01,2013-04-16 14:32:00,
2013-04-16 10:37:00,61.3,58.3,30.21,SSW,192,0.0,0.0,90,0.00,,,0.00,155.00,VWS V14.01,2013-04-16 14:37:00,
2013-04-16 10:42:00,61.3,58.3,30.21,SSW,192,0.0,0.0,90,0.00,,,0.00,176.00,VWS V14.01,2013-04-16 14:42:00,
2013-04-16 10:47:00,61.5,58.5,30.21,SSW,192,0.0,0.0,90,0.00,,,0.00,193.00,VWS V14.01,2013-04-16 14:47:00,
2013-04-16 10:52:00,61.8,58.5,30.21,SSW,192,0.0,2.0,89,0.00,,,0.00,220.00,VWS V14.01,2013-04-16 14:52:00,
2013-04-16 10:57:00,62.0,58.4,30.21,SSW,192,0.0,0.0,88,0.00,,,0.00,220.00,VWS V14.01,2013-04-16 14:57:00,
2013-04-16 11:02:00,62.3,58.7,30.22,SSW,192,0.0,0.0,88,0.00,,,0.00,206.00,VWS V14.01,2013-04-16 15:02:00,
2013-04-16 11:07:00,62.6,58.7,30.22,SSW,192,0.0,0.0,87,0.00,,,0.00,214.00,VWS V14.01,2013-04-16 15:07:00,
2013-04-16 11:12:00,62.9,58.7,30.22,SSW,192,0.0,0.0,86,0.00,,,0.00,220.00,VWS V14.01,2013-04-16 15:12:00,
2013-04-16 11:17:00,63.2,58.3,30.22,SSW,192,1.0,3.0,84,0.00,,,0.00,221.00,VWS V14.01,2013-04-16 15:17:00,
2013-04-16 11:22:00,63.4,58.2,30.22,SSW,192,3.0,3.0,83,0.00,,,0.00,218.00,VWS V14.01,2013-04-16 15:22:00,
2013-04-16 11:27:00,63.4,57.8,30.22,SSW,192,0.0,0.0,82,0.00,,,0.00,225.00,VWS V14.01,2013-04-16 15:27:00,
2013-04-16 11:32:00,63.7,58.1,30.22,SSW,192,4.0,4.0,82,0.00,,,0.00,223.00,VWS V14.01,2013-04-16 15:32:00,
2013-04-16 11:37:00,63.7,57.8,30.22,SSW,192,0.0,0.0,81,0.00,,,0.00,220.00,VWS V14.01,2013-04-16 15:37:00,
2013-04-16 11:42:00,63.9,58.0,30.22,SSW,192,0.0,0.0,81,0.00,,,0.00,236.00,VWS V14.01,2013-04-16 15:42:00,
2013-04-16 11:47:00,64.2,58.3,30.22,SSW,192,0.0,0.0,81,0.00,,,0.00,262.00,VWS V14.01,2013-04-16 15:47:00,
2013-04-16 11:52:00,64.5,58.2,30.22,SSW,192,0.0,0.0,80,0.00,,,0.00,258.00,VWS V14.01,2013-04-16 15:52:00,
2013-04-16 11:57:00,64.7,57.7,30.22,SSW,192,0.0,0.0,78,0.00,,,0.00,272.00,VWS V14.01,2013-04-16 15:57:00,
2013-04-16 12:02:00,64.8,57.8,30.22,SSW,192,0.0,0.0,78,0.00,,,0.00,236.00,VWS V14.01,2013-04-16 16:02:00,
2013-04-16 12:07:00,65.2,58.2,30.22,SSW,192,0.0,0.0,78,0.00,,,0.00,239.00,VWS V14.01,2013-04-16 16:07:00,
2013-04-16 12:12:00,65.5,58.1,30.22,SSW,192,0.0,0.0,77,0.00,,,0.00,246.00,VWS V14.01,2013-04-16 16:12:00,
2013-04-16 12:17:00,65.6,58.2,30.22,SSW,192,1.0,1.0,77,0.00,,,0.00,272.00,VWS V14.01,2013-04-16 16:17:00,
2013-04-16 12:22:00,65.8,58.0,30.22,SSE,165,0.0,0.0,76,0.00,,,0.00,292.00,VWS V14.01,2013-04-16 16:22:00,
2013-04-16 12:27:00,66.1,58.0,30.22,SSE,165,0.0,0.0,75,0.00,,,0.00,381.00,VWS V14.01,2013-04-16 16:27:00,
2013-04-16 12:32:00,66.4,58.2,30.22,SSE,165,0.0,0.0,75,0.00,,,0.00,411.00,VWS V14.01,2013-04-16 16:32:00,
2013-04-16 12:37:00,66.9,58.7,30.22,SSE,151,0.0,0.0,75,0.00,,,0.00,452.00,VWS V14.01,2013-04-16 16:37:00,
2013-04-16 12:42:00,67.4,58.1,30.22,SSE,151,0.0,0.0,72,0.00,,,0.00,439.00,VWS V14.01,2013-04-16 16:42:00,
2013-04-16 12:47:00,67.8,58.1,30.21,SSE,151,0.0,0.0,71,0.00,,,0.00,610.00,VWS V14.01,2013-04-16 16:47:00,
2013-04-16 12:52:00,68.3,58.2,30.21,SE,142,1.0,2.0,70,0.00,,,0.00,459.00,VWS V14.01,2013-04-16 16:52:00,
2013-04-16 12:57:00,68.9,59.1,30.21,SE,142,0.0,0.0,71,0.00,,,0.00,615.00,VWS V14.01,2013-04-16 16:57:00,
2013-04-16 13:02:00,69.8,58.8,30.21,SSE,154,0.0,4.0,68,0.00,,,0.00,585.00,VWS V14.01,2013-04-16 17:02:00,
2013-04-16 13:07:00,70.3,58.4,30.21,SSE,154,0.0,0.0,66,0.00,,,0.00,531.00,VWS V14.01,2013-04-16 17:07:00,
2013-04-16 13:12:00,70.3,58.4,30.21,NE,48,3.0,4.0,66,0.00,,,0.00,392.00,VWS V14.01,2013-04-16 17:12:00,
2013-04-16 13:17:00,70.1,59.1,30.21,ESE,115,4.0,5.0,68,0.00,,,0.00,454.00,VWS V14.01,2013-04-16 17:17:00,
2013-04-16 13:22:00,70.1,58.7,30.21,SE,141,3.0,4.0,67,0.00,,,0.00,476.00,VWS V14.01,2013-04-16 17:22:00,
2013-04-16 13:27:00,70.6,59.1,30.21,SE,146,0.0,3.0,67,0.00,,,0.00,1209.00,VWS V14.01,2013-04-16 17:27:00,
2013-04-16 13:32:00,71.5,59.1,30.20,South,176,0.0,0.0,65,0.00,,,0.00,1153.00,VWS V14.01,2013-04-16 17:32:00,
2013-04-16 13:37:00,72.5,59.2,30.20,ESE,122,0.0,0.0,63,0.00,,,0.00,912.00,VWS V14.01,2013-04-16 17:37:00,
2013-04-16 13:42:00,73.2,60.3,30.20,ESE,113,0.0,2.0,64,0.00,,,0.00,1211.00,VWS V14.01,2013-04-16 17:42:00,
2013-04-16 13:47:00,73.7,58.5,30.19,South,170,0.0,0.0,59,0.00,,,0.00,1086.00,VWS V14.01,2013-04-16 17:47:00,
2013-04-16 13:52:00,74.4,60.1,30.19,SE,139,2.0,4.0,61,0.00,,,0.00,990.00,VWS V14.01,2013-04-16 17:52:00,
2013-04-16 13:57:00,74.6,59.8,30.19,SSE,157,4.0,5.0,60,0.00,,,0.00,974.00,VWS V14.01,2013-04-16 17:57:00,
2013-04-16 14:02:00,74.7,59.0,30.19,East,83,3.0,5.0,58,0.00,,,0.00,965.00,VWS V14.01,2013-04-16 18:02:00,
2013-04-16 14:07:00,74.9,59.1,30.19,NE,44,2.0,4.0,58,0.00,,,0.00,956.00,VWS V14.01,2013-04-16 18:07:00,
2013-04-16 14:12:00,74.9,58.2,30.19,NE,50,0.0,0.0,56,0.00,,,0.00,911.00,VWS V14.01,2013-04-16 18:12:00,
2013-04-16 14:17:00,74.9,58.7,30.18,NE,50,0.0,0.0,57,0.00,,,0.00,942.00,VWS V14.01,2013-04-16 18:17:00,
2013-04-16 14:23:00,75.1,58.8,30.18,NNW,336,0.0,0.0,57,0.00,,,0.00,925.00,VWS V14.01,2013-04-16 18:23:00,
2013-04-16 14:28:00,75.1,58.8,30.18,NNE,23,0.0,1.0,57,0.00,,,0.00,921.00,VWS V14.01,2013-04-16 18:28:00,
2013-04-16 14:33:00,75.1,58.8,30.18,West,269,1.0,1.0,57,0.00,,,0.00,907.00,VWS V14.01,2013-04-16 18:33:00,
2013-04-16 14:38:00,75.4,58.6,30.18,West,272,0.0,1.0,56,0.00,,,0.00,907.00,VWS V14.01,2013-04-16 18:38:00,
2013-04-16 14:42:00,76.1,59.3,30.18,NNE,25,0.0,3.0,56,0.00,,,0.00,886.00,VWS V14.01,2013-04-16 18:42:00,
2013-04-16 14:47:00,76.8,59.4,30.17,SSE,152,5.0,6.0,55,0.00,,,0.00,896.00,VWS V14.01,2013-04-16 18:47:00,
2013-04-16 14:52:00,76.7,58.3,30.17,South,175,0.0,1.0,53,0.00,,,0.00,881.00,VWS V14.01,2013-04-16 18:52:00,
2013-04-16 14:57:00,76.8,58.9,30.17,South,175,0.0,0.0,54,0.00,,,0.00,805.00,VWS V14.01,2013-04-16 18:57:00,
2013-04-16 15:02:00,76.8,57.9,30.17,NW,317,4.0,4.0,52,0.00,,,0.00,810.00,VWS V14.01,2013-04-16 19:02:00,
2013-04-16 15:07:00,77.0,58.6,30.17,NNE,16,0.0,1.0,53,0.00,,,0.00,773.00,VWS V14.01,2013-04-16 19:07:00,
2013-04-16 15:12:00,77.2,57.1,30.17,WNW,288,0.0,1.0,50,0.00,,,0.00,867.00,VWS V14.01,2013-04-16 19:12:00,
2013-04-16 15:17:00,77.6,58.1,30.16,SSW,208,4.0,4.0,51,0.00,,,0.00,758.00,VWS V14.01,2013-04-16 19:17:00,
2013-04-16 15:22:00,77.7,57.6,30.16,South,186,0.0,1.0,50,0.00,,,0.00,809.00,VWS V14.01,2013-04-16 19:22:00,
2013-04-16 15:27:00,77.6,57.5,30.16,South,186,0.0,0.0,50,0.00,,,0.00,800.00,VWS V14.01,2013-04-16 19:27:00,
2013-04-16 15:32:00,77.9,57.2,30.15,WSW,253,0.0,3.0,49,0.00,,,0.00,772.00,VWS V14.01,2013-04-16 19:32:00,
2013-04-16 15:37:00,78.1,56.8,30.15,WSW,256,0.0,1.0,48,0.00,,,0.00,759.00,VWS V14.01,2013-04-16 19:37:00,
2013-04-16 15:42:00,78.6,57.3,30.15,WSW,256,0.0,0.0,48,0.00,,,0.00,751.00,VWS V14.01,2013-04-16 19:42:00,
2013-04-16 15:47:00,79.0,57.1,30.14,South,186,6.0,7.0,47,0.00,,,0.00,666.00,VWS V14.01,2013-04-16 19:47:00,
2013-04-16 15:52:00,79.0,55.2,30.14,South,185,0.0,0.0,44,0.00,,,0.00,682.00,VWS V14.01,2013-04-16 19:52:00,
2013-04-16 15:57:00,79.6,57.6,30.14,SW,230,0.0,5.0,47,0.00,,,0.00,592.00,VWS V14.01,2013-04-16 19:57:00,
2013-04-16 16:03:00,79.6,57.6,30.13,WNW,295,0.0,0.0,47,0.00,,,0.00,698.00,VWS V14.01,2013-04-16 20:03:00,
2013-04-16 16:08:00,79.4,57.4,30.13,SSW,192,0.0,0.0,47,0.00,,,0.00,701.00,VWS V14.01,2013-04-16 20:08:00,
2013-04-16 16:13:00,79.6,55.8,30.13,South,175,0.0,0.0,44,0.00,,,0.00,705.00,VWS V14.01,2013-04-16 20:13:00,
2013-04-16 16:18:00,79.6,55.8,30.13,SSE,166,0.0,5.0,44,0.00,,,0.00,682.00,VWS V14.01,2013-04-16 20:18:00,
2013-04-16 16:23:00,79.6,57.6,30.13,East,98,3.0,5.0,47,0.00,,,0.00,657.00,VWS V14.01,2013-04-16 20:23:00,
2013-04-16 16:28:00,79.6,55.8,30.13,South,169,0.0,4.0,44,0.00,,,0.00,643.00,VWS V14.01,2013-04-16 20:28:00,
2013-04-16 16:33:00,79.2,54.8,30.12,SSE,166,0.0,0.0,43,0.00,,,0.00,621.00,VWS V14.01,2013-04-16 20:33:00,
2013-04-16 16:38:00,79.6,56.4,30.12,South,178,0.0,3.0,45,0.00,,,0.00,605.00,VWS V14.01,2013-04-16 20:38:00,
2013-04-16 16:43:00,80.1,55.6,30.12,SSE,160,0.0,0.0,43,0.00,,,0.00,568.00,VWS V14.01,2013-04-16 20:43:00,
2013-04-16 16:48:00,80.5,54.7,30.12,East,91,0.0,6.0,41,0.00,,,0.00,571.00,VWS V14.01,2013-04-16 20:48:00,
2013-04-16 16:53:00,80.1,56.2,30.12,East,89,4.0,5.0,44,0.00,,,0.00,545.00,VWS V14.01,2013-04-16 20:53:00,
2013-04-16 16:58:00,79.9,56.1,30.12,East,89,0.0,1.0,44,0.00,,,0.00,540.00,VWS V14.01,2013-04-16 20:58:00,
2013-04-16 17:03:00,79.9,56.7,30.11,SE,127,5.0,8.0,45,0.00,,,0.00,520.00,VWS V14.01,2013-04-16 21:03:00,
2013-04-16 17:08:00,79.9,56.1,30.11,ENE,75,3.0,3.0,44,0.00,,,0.00,448.00,VWS V14.01,2013-04-16 21:08:00,
2013-04-16 17:13:00,80.1,56.2,30.11,East,87,0.0,0.0,44,0.00,,,0.00,487.00,VWS V14.01,2013-04-16 21:13:00,
2013-04-16 17:18:00,80.1,56.2,30.11,ESE,106,2.0,5.0,44,0.00,,,0.00,464.00,VWS V14.01,2013-04-16 21:18:00,
2013-04-16 17:23:00,79.9,55.4,30.11,East,82,0.0,0.0,43,0.00,,,0.00,448.00,VWS V14.01,2013-04-16 21:23:00,
2013-04-16 17:28:00,79.8,55.3,30.11,East,95,1.0,7.0,43,0.00,,,0.00,427.00,VWS V14.01,2013-04-16 21:28:00,
2013-04-16 17:33:00,79.6,55.2,30.11,ESE,116,5.0,5.0,43,0.00,,,0.00,420.00,VWS V14.01,2013-04-16 21:33:00,
2013-04-16 17:38:00,79.6,54.5,30.11,East,96,0.0,3.0,42,0.00,,,0.00,387.00,VWS V14.01,2013-04-16 21:38:00,
2013-04-16 17:43:00,79.4,55.0,30.11,East,88,2.0,4.0,43,0.00,,,0.00,366.00,VWS V14.01,2013-04-16 21:43:00,
2013-04-16 17:48:00,79.2,54.8,30.11,SE,146,0.0,0.0,43,0.00,,,0.00,350.00,VWS V14.01,2013-04-16 21:48:00,
2013-04-16 17:53:00,79.2,54.8,30.11,ESE,108,5.0,7.0,43,0.00,,,0.00,336.00,VWS V14.01,2013-04-16 21:53:00,
2013-04-16 17:58:00,79.4,54.3,30.11,ESE,113,4.0,5.0,42,0.00,,,0.00,316.00,VWS V14.01,2013-04-16 21:58:00,
2013-04-16 18:03:00,79.4,55.0,30.11,ESE,108,0.0,1.0,43,0.00,,,0.00,297.00,VWS V14.01,2013-04-16 22:03:00,
2013-04-16 18:08:00,79.0,54.6,30.11,South,181,0.0,0.0,43,0.00,,,0.00,281.00,VWS V14.01,2013-04-16 22:08:00,
2013-04-16 18:13:00,78.8,55.1,30.11,ESE,115,3.0,6.0,44,0.00,,,0.00,262.00,VWS V14.01,2013-04-16 22:13:00,
2013-04-16 18:18:00,78.6,54.3,30.11,ESE,103,0.0,0.0,43,0.00,,,0.00,244.00,VWS V14.01,2013-04-16 22:18:00,
2013-04-16 18:23:00,78.3,54.6,30.11,SE,139,4.0,5.0,44,0.00,,,0.00,227.00,VWS V14.01,2013-04-16 22:23:00,
2013-04-16 18:28:00,78.1,54.4,30.11,SSE,165,0.0,5.0,44,0.00,,,0.00,207.00,VWS V14.01,2013-04-16 22:28:00,
2013-04-16 18:33:00,77.7,54.7,30.11,South,169,0.0,0.0,45,0.00,,,0.00,125.00,VWS V14.01,2013-04-16 22:33:00,
2013-04-16 18:38:00,77.4,53.2,30.11,SW,233,4.0,4.0,43,0.00,,,0.00,158.00,VWS V14.01,2013-04-16 22:38:00,
2013-04-16 18:43:00,77.2,53.0,30.11,SSW,209,0.0,0.0,43,0.00,,,0.00,105.00,VWS V14.01,2013-04-16 22:43:00,
2013-04-16 18:48:00,77.0,52.8,30.11,South,179,3.0,5.0,43,0.00,,,0.00,76.00,VWS V14.01,2013-04-16 22:48:00,
2013-04-16 18:53:00,76.5,53.6,30.11,South,187,4.0,5.0,45,0.00,,,0.00,51.00,VWS V14.01,2013-04-16 22:53:00,
2013-04-16 18:58:00,76.1,53.8,30.11,SSW,198,2.0,3.0,46,0.00,,,0.00,47.00,VWS V14.01,2013-04-16 22:58:00,
2013-04-16 19:03:00,76.0,54.3,30.11,SSW,194,0.0,1.0,47,0.00,,,0.00,44.00,VWS V14.01,2013-04-16 23:03:00,
2013-04-16 19:08:00,75.8,54.2,30.11,SSW,194,0.0,0.0,47,0.00,,,0.00,39.00,VWS V14.01,2013-04-16 23:08:00,
2013-04-16 19:13:00,75.4,54.4,30.11,SSW,194,0.0,1.0,48,0.00,,,0.00,33.00,VWS V14.01,2013-04-16 23:13:00,
2013-04-16 19:18:00,75.3,54.3,30.11,SSW,194,0.0,0.0,48,0.00,,,0.00,28.00,VWS V14.01,2013-04-16 23:18:00,
2013-04-16 19:23:00,74.9,54.5,30.11,SSW,194,0.0,0.0,49,0.00,,,0.00,19.00,VWS V14.01,2013-04-16 23:23:00,
2013-04-16 19:28:00,74.6,54.8,30.11,SSW,194,0.0,0.0,50,0.00,,,0.00,18.00,VWS V14.01,2013-04-16 23:28:00,
2013-04-16 19:33:00,74.2,55.5,30.11,SSW,194,0.0,0.0,52,0.00,,,0.00,14.00,VWS V14.01,2013-04-16 23:33:00,
2013-04-16 19:38:00,73.9,56.2,30.11,SSW,194,0.0,0.0,54,0.00,,,0.00,11.00,VWS V14.01,2013-04-16 23:38:00,
2013-04-16 19:43:00,73.3,56.2,30.11,SSW,194,0.0,0.0,55,0.00,,,0.00,7.00,VWS V14.01,2013-04-16 23:43:00,
2013-04-16 19:48:00,72.8,56.2,30.11,SSW,194,0.0,0.0,56,0.00,,,0.00,0.00,VWS V14.01,2013-04-16 23:48:00,
2013-04-16 19:53:00,72.3,56.2,30.11,SSW,194,0.0,0.0,57,0.00,,,0.00,0.00,VWS V14.01,2013-04-16 23:53:00,
2013-04-16 19:58:00,71.8,56.7,30.11,SSW,194,0.0,0.0,59,0.00,,,0.00,0.00,VWS V14.01,2013-04-16 23:58:00,
2013-04-16 20:03:00,71.1,56.5,30.11,SSW,194,0.0,0.0,60,0.00,,,0.00,0.00,VWS V14.01,2013-04-17 00:03:00,
2013-04-16 20:08:00,70.4,56.8,30.11,SSW,194,0.0,0.0,62,0.00,,,0.00,0.00,VWS V14.01,2013-04-17 00:08:00,
2013-04-16 20:13:00,69.9,57.2,30.11,SSW,194,0.0,0.0,64,0.00,,,0.00,0.00,VWS V14.01,2013-04-17 00:13:00,
2013-04-16 20:18:00,69.3,57.0,30.11,SSW,194,0.0,0.0,65,0.00,,,0.00,0.00,VWS V14.01,2013-04-17 00:18:00,
2013-04-16 20:23:00,68.8,56.6,30.11,SSW,194,0.0,0.0,65,0.00,,,0.00,0.00,VWS V14.01,2013-04-17 00:23:00,
2013-04-16 20:28:00,68.3,56.9,30.11,SSW,194,0.0,0.0,67,0.00,,,0.00,0.00,VWS V14.01,2013-04-17 00:28:00,
2013-04-16 20:33:00,67.8,56.9,30.11,SSW,194,0.0,0.0,68,0.00,,,0.00,0.00,VWS V14.01,2013-04-17 00:33:00,
2013-04-16 20:38:00,67.3,56.4,30.11,SSW,194,0.0,0.0,68,0.00,,,0.00,0.00,VWS V14.01,2013-04-17 00:38:00,
2013-04-16 20:43:00,66.8,56.7,30.11,SSW,194,0.0,0.0,70,0.00,,,0.00,0.00,VWS V14.01,2013-04-17 00:43:00,
2013-04-16 20:48:00,66.4,56.3,30.11,SSW,194,0.0,0.0,70,0.00,,,0.00,0.00,VWS V14.01,2013-04-17 00:48:00,
2013-04-16 20:53:00,66.0,56.3,30.11,SSW,194,0.0,0.0,71,0.00,,,0.00,0.00,VWS V14.01,2013-04-17 00:53:00,
2013-04-16 20:58:00,65.6,56.7,30.11,SSW,194,0.0,0.0,73,0.00,,,0.00,0.00,VWS V14.01,2013-04-17 00:58:00,
2013-04-16 21:03:00,65.2,56.7,30.12,SSW,194,0.0,0.0,74,0.00,,,0.00,0.00,VWS V14.01,2013-04-17 01:03:00,
2013-04-16 21:08:00,64.8,56.7,30.12,SSW,194,0.0,0.0,75,0.00,,,0.00,0.00,VWS V14.01,2013-04-17 01:08:00,
2013-04-16 21:13:00,64.3,56.6,30.12,SSW,194,0.0,0.0,76,0.00,,,0.00,0.00,VWS V14.01,2013-04-17 01:13:00,
2013-04-16 21:18:00,64.0,56.7,30.13,SSW,194,0.0,0.0,77,0.00,,,0.00,0.00,VWS V14.01,2013-04-17 01:18:00,
2013-04-16 21:23:00,63.7,57.1,30.13,SSW,194,0.0,0.0,79,0.00,,,0.00,0.00,VWS V14.01,2013-04-17 01:23:00,
2013-04-16 21:28:00,63.4,57.1,30.13,SSW,194,0.0,0.0,80,0.00,,,0.00,0.00,VWS V14.01,2013-04-17 01:28:00,
2013-04-16 21:33:00,63.1,57.5,30.13,SSW,194,0.0,0.0,82,0.00,,,0.00,0.00,VWS V14.01,2013-04-17 01:33:00,
2013-04-16 21:38:00,62.7,57.1,30.13,SSW,194,0.0,0.0,82,0.00,,,0.00,0.00,VWS V14.01,2013-04-17 01:38:00,
2013-04-16 21:43:00,62.6,57.0,30.13,SSW,194,0.0,0.0,82,0.00,,,0.00,0.00,VWS V14.01,2013-04-17 01:43:00,
2013-04-16 21:48:00,62.3,57.1,30.14,SSW,194,0.0,0.0,83,0.00,,,0.00,0.00,VWS V14.01,2013-04-17 01:48:00,
2013-04-16 21:53:00,62.0,56.5,30.14,SSW,194,0.0,0.0,82,0.00,,,0.00,0.00,VWS V14.01,2013-04-17 01:53:00,
2013-04-16 21:58:00,61.6,56.4,30.14,SSW,194,0.0,0.0,83,0.00,,,0.00,0.00,VWS V14.01,2013-04-17 01:58:00,
2013-04-16 22:03:00,61.5,57.0,30.14,SSW,194,0.0,0.0,85,0.00,,,0.00,0.00,VWS V14.01,2013-04-17 02:03:00,
2013-04-16 22:08:00,61.3,56.8,30.14,SSW,194,0.0,0.0,85,0.00,,,0.00,0.00,VWS V14.01,2013-04-17 02:08:00,
2013-04-16 22:13:00,61.2,57.0,30.14,SSW,194,0.0,0.0,86,0.00,,,0.00,0.00,VWS V14.01,2013-04-17 02:13:00,
2013-04-16 22:18:00,60.9,56.7,30.14,SSW,194,0.0,0.0,86,0.00,,,0.00,0.00,VWS V14.01,2013-04-17 02:18:00,
2013-04-16 22:23:00,60.7,56.5,30.14,SSW,194,0.0,0.0,86,0.00,,,0.00,0.00,VWS V14.01,2013-04-17 02:23:00,
2013-04-16 22:28:00,60.4,56.2,30.14,SSW,194,0.0,0.0,86,0.00,,,0.00,0.00,VWS V14.01,2013-04-17 02:28:00,
2013-04-16 22:33:00,60.4,56.5,30.14,SSW,194,0.0,0.0,87,0.00,,,0.00,0.00,VWS V14.01,2013-04-17 02:33:00,
2013-04-16 22:38:00,60.2,56.6,30.14,SSW,194,0.0,0.0,88,0.00,,,0.00,0.00,VWS V14.01,2013-04-17 02:38:00,
2013-04-16 22:43:00,60.1,56.5,30.14,SSW,194,0.0,0.0,88,0.00,,,0.00,0.00,VWS V14.01,2013-04-17 02:43:00,
2013-04-16 22:48:00,59.8,56.2,30.14,SSW,194,0.0,0.0,88,0.00,,,0.00,0.00,VWS V14.01,2013-04-17 02:48:00,
2013-04-16 22:53:00,59.6,56.0,30.14,SSW,194,0.0,0.0,88,0.00,,,0.00,0.00,VWS V14.01,2013-04-17 02:53:00,
2013-04-16 22:58:00,59.5,56.0,30.14,SSW,194,0.0,0.0,88,0.00,,,0.00,0.00,VWS V14.01,2013-04-17 02:58:00,
2013-04-16 23:03:00,59.5,56.3,30.14,SSW,194,0.0,0.0,89,0.00,,,0.00,0.00,VWS V14.01,2013-04-17 03:03:00,
2013-04-16 23:08:00,59.3,56.1,30.14,SSW,194,0.0,0.0,89,0.00,,,0.00,0.00,VWS V14.01,2013-04-17 03:08:00,
2013-04-16 23:13:00,59.2,56.0,30.14,SSW,194,0.0,0.0,89,0.00,,,0.00,0.00,VWS V14.01,2013-04-17 03:13:00,
2013-04-16 23:18:00,59.2,56.3,30.15,SSW,194,0.0,0.0,90,0.00,,,0.00,0.00,VWS V14.01,2013-04-17 03:18:00,
2013-04-16 23:23:00,59.2,56.3,30.15,SSW,194,0.0,0.0,90,0.00,,,0.00,0.00,VWS V14.01,2013-04-17 03:23:00,
2013-04-16 23:28:00,59.0,56.1,30.15,SSW,194,0.0,0.0,90,0.00,,,0.00,0.00,VWS V14.01,2013-04-17 03:28:00,
2013-04-16 23:33:00,58.9,56.0,30.15,SSW,194,0.0,0.0,90,0.00,,,0.00,0.00,VWS V14.01,2013-04-17 03:33:00,
2013-04-16 23:38:00,58.7,55.8,30.15,SSW,194,0.0,0.0,90,0.00,,,0.00,0.00,VWS V14.01,2013-04-17 03:38:00,
2013-04-16 23:43:00,58.6,55.7,30.15,SSW,194,0.0,0.0,90,0.00,,,0.00,0.00,VWS V14.01,2013-04-17 03:43:00,
2013-04-16 23:48:00,58.3,55.4,30.15,SSW,194,0.0,0.0,90,0.00,,,0.00,0.00,VWS V14.01,2013-04-17 03:48:00,
2013-04-16 23:53:00,58.3,55.4,30.15,SSW,194,0.0,0.0,90,0.00,,,0.00,0.00,VWS V14.01,2013-04-17 03:53:00,
2013-04-16 23:58:00,58.3,55.7,30.15,SSW,194,0.0,0.0,91,0.00,,,0.00,0.00,VWS V14.01,2013-04-17 03:58:00,